ROMMA est une association bénévole à but non lucratif. Votre soutien est indispensable : ADHERER à ROMMA ou FAIRE un DON

Voiron - (38, Isère)

Voironnais (300 m)   Longitude: 05° 35' E   Latitude: 45° 23' N Station partenaire n°109
 

Détail journalier du     <<     >>

Température Precipitation Humidité Pression Vent Dir Rafale Dir. rafale Ensol.
Heure (°C) (mm) (%) (hPa) (km/h) (km/h) (min)
01:00 10.808310262SO6NE0
02:00 10.408610262ONO5OSO0
03:00 9.308810252S8SSE0
04:00 8.609010241NO3NO0
05:00 8.309010242NO11S0
06:00 6.909010242N6NNO0
07:00 6.409110242N6NNO0
08:00 6.909210242NNE5NNE0
09:00 10.408010242N8N60
10:00 10.508110236SSE16S60
11:00 11.6078102312S24S60
12:00 13.3072102212S24SSE60
13:00 14.706510219S18SSE60
14:00 16.505810206S16SSO60
15:00 18.105110194S13SSE60
16:00 18.804310184SSE11SSE60
17:00 18.904910175SE13SE60
18:00 18.604710176S16S60
19:00 15.905910172E8S0
20:00 13.606710162SSE13S0
21:00 12.906810162NE6E0
22:00 12.806510162SSE11ESE0
23:00 10.707510162E10SSE0
minuit 10.207510162N6NNE0

Graphique du 16-03-2019

 

Serveur OMMA